Change the Weather History Date:

Saturday, September 29, 2012

  Actual Average Record
Temperature  
Mean Temperature 54 °F -  
Max Temperature 73 °F 63 °F 82 °F (2000)
Min Temperature 35 °F 40 °F 22 °F (1984)
Degree Days  
Heating Degree Days 11    
Growing Degree Days 4 (Base 50)    
Moisture  
Dew Point 34 °F    
Average Humidity 56    
Maximum Humidity 87    
Minimum Humidity 22    
Precipitation  
Precipitation 0.00 in - - ()
Sea Level Pressure  
Sea Level Pressure 30.08 in    
Wind  
Wind Speed 1 mph (ENE)    
Max Wind Speed 8 mph    
Max Gust Speed -    
Visibility 10 miles    
Events      
Averages and records for this station are not official NWS values.
T = Trace of Precipitation, MM = Missing Value Source: NWS Daily Summary

Daily Weather History Graph

Daily Weather History Graph

Search for Another Location

Airport or City:

Trip Planner

Search our weather history database for the weather conditions in past years. The results will help you decide how hot, cold, wet, or windy it might be!

Date:

Astronomy

Sep. 29, 2012 Rise Set
Actual Time 7:07 AM CDT 6:54 PM CDT
Civil Twilight 6:37 AM CDT 7:23 PM CDT
Nautical Twilight 6:02 AM CDT 7:58 PM CDT
Astronomical Twilight 5:27 AM CDT 8:34 PM CDT
Moon 6:23 PM CDT (9/29) 6:40 AM CDT (9/29)
Length of Visible Light 12h 46m
Length of Day
11h 46m
Full, 100% of the Moon is Illuminated
Sep 29
Full
Sep 29
Full
Oct 8
Last Quarter
Oct 15
New
Oct 21
First Quarter

Hourly Weather History & Observations

Time (CDT) Temp. Dew Point Humidity Pressure Visibility Wind Dir Wind Speed Gust Speed Precip Events Conditions
12:10 AM 42.8 °F 35.6 °F 76% 30.06 in 10.0 mi Calm Calm - N/A   Clear
12:30 AM 42.8 °F 35.6 °F 76% 30.06 in 10.0 mi Calm Calm - N/A   Clear
12:50 AM 42.8 °F 37.4 °F 81% 30.06 in 10.0 mi Calm Calm - N/A   Clear
1:10 AM 42.8 °F 35.6 °F 76% 30.06 in 10.0 mi Calm Calm - N/A   Clear
1:30 AM 41.0 °F 35.6 °F 81% 30.07 in 10.0 mi Calm Calm - N/A   Clear
1:50 AM 41.0 °F 35.6 °F 81% 30.07 in 10.0 mi Calm Calm - N/A   Clear
2:10 AM 41.0 °F 35.6 °F 81% 30.08 in 10.0 mi Calm Calm - N/A   Clear
2:30 AM 39.2 °F 33.8 °F 81% 30.08 in 10.0 mi Calm Calm - N/A   Clear
2:50 AM 39.2 °F 33.8 °F 81% 30.08 in 10.0 mi Calm Calm - N/A   Clear
3:10 AM 39.2 °F 33.8 °F 81% 30.08 in 10.0 mi Calm Calm - N/A   Clear
3:30 AM 39.2 °F 33.8 °F 81% 30.08 in 10.0 mi Calm Calm - N/A   Clear
3:50 AM 37.4 °F 33.8 °F 87% 30.07 in 10.0 mi Calm Calm - N/A   Clear
4:10 AM 37.4 °F 33.8 °F 87% 30.08 in 10.0 mi Calm Calm - N/A   Clear
4:30 AM 37.4 °F 32.0 °F 81% 30.08 in 10.0 mi Calm Calm - N/A   Clear
4:50 AM 37.4 °F 32.0 °F 81% 30.07 in 10.0 mi Calm Calm - N/A   Clear
5:10 AM 39.2 °F 33.8 °F 81% 30.08 in 10.0 mi Calm Calm - N/A   Clear
5:30 AM 37.4 °F 32.0 °F 81% 30.09 in 7.0 mi Calm Calm - N/A   Clear
5:50 AM 37.4 °F 33.8 °F 87% 30.09 in 10.0 mi Calm Calm - N/A   Clear
6:10 AM 35.6 °F 32.0 °F 87% 30.09 in 10.0 mi Calm Calm - N/A   Clear
6:30 AM 35.6 °F 32.0 °F 87% 30.09 in 7.0 mi Calm Calm - N/A   Clear
6:50 AM 35.6 °F 32.0 °F 87% 30.10 in 7.0 mi Calm Calm - N/A   Clear
7:10 AM 35.6 °F 32.0 °F 87% 30.11 in 10.0 mi Calm Calm - N/A   Clear
7:30 AM 35.6 °F 32.0 °F 87% 30.11 in 7.0 mi Calm Calm - N/A   Clear
7:50 AM 37.4 °F 33.8 °F 87% 30.11 in 10.0 mi Calm Calm - N/A   Clear
8:10 AM 41.0 °F 35.6 °F 81% 30.11 in 10.0 mi Calm Calm - N/A   Clear
8:30 AM 44.6 °F 39.2 °F 81% 30.11 in 10.0 mi Calm Calm - N/A   Clear
8:50 AM 46.4 °F 37.4 °F 71% 30.11 in 10.0 mi Calm Calm - N/A   Clear
9:10 AM 51.8 °F 35.6 °F 54% 30.12 in 10.0 mi Calm Calm - N/A   Clear
9:30 AM 55.4 °F 37.4 °F 51% 30.12 in 10.0 mi NE 3.5 mph - N/A   Clear
9:50 AM 55.4 °F 37.4 °F 51% 30.13 in 10.0 mi Calm Calm - N/A   Clear
10:10 AM 59.0 °F 37.4 °F 45% 30.13 in 10.0 mi Calm Calm - N/A   Clear
10:30 AM 60.8 °F 35.6 °F 39% 30.12 in 10.0 mi Calm Calm - N/A   Clear
10:50 AM 62.6 °F 37.4 °F 39% 30.12 in 10.0 mi Calm Calm - N/A   Clear
11:10 AM 64.4 °F 35.6 °F 34% 30.12 in 10.0 mi Calm Calm - N/A   Clear
11:30 AM 66.2 °F 33.8 °F 30% 30.11 in 10.0 mi Calm Calm - N/A   Clear
11:50 AM 68.0 °F 33.8 °F 28% 30.11 in 10.0 mi Calm Calm - N/A   Clear
12:10 PM 68.0 °F 30.2 °F 24% 30.11 in 10.0 mi Calm Calm - N/A   Clear
12:30 PM 68.0 °F 32.0 °F 26% 30.10 in 10.0 mi Calm Calm - N/A   Clear
12:50 PM 69.8 °F 32.0 °F 25% 30.09 in 10.0 mi East 4.6 mph - N/A   Clear
1:10 PM 71.6 °F 32.0 °F 23% 30.08 in 10.0 mi NNE 6.9 mph - N/A   Clear
1:30 PM 71.6 °F 32.0 °F 23% 30.08 in 10.0 mi NNE 4.6 mph - N/A   Clear
1:50 PM 73.4 °F 32.0 °F 22% 30.07 in 10.0 mi East 6.9 mph - N/A   Clear
2:10 PM 73.4 °F 32.0 °F 22% 30.07 in 10.0 mi NE 8.1 mph - N/A   Clear
2:30 PM 71.6 °F 32.0 °F 23% 30.07 in 10.0 mi ENE 6.9 mph - N/A   Clear
2:50 PM 71.6 °F 32.0 °F 23% 30.06 in 10.0 mi NE 5.8 mph - N/A   Clear
3:10 PM 71.6 °F 32.0 °F 23% 30.06 in 10.0 mi ENE 6.9 mph - N/A   Clear
3:30 PM 73.4 °F 32.0 °F 22% 30.06 in 10.0 mi ESE 4.6 mph - N/A   Clear
3:50 PM 73.4 °F 32.0 °F 22% 30.05 in 10.0 mi ENE 5.8 mph - N/A   Clear
4:10 PM 71.6 °F 32.0 °F 23% 30.04 in 10.0 mi East 4.6 mph - N/A   Clear
4:30 PM 71.6 °F 32.0 °F 23% 30.04 in 10.0 mi East 5.8 mph - N/A   Clear
4:50 PM 71.6 °F 32.0 °F 23% 30.04 in 10.0 mi East 5.8 mph - N/A   Clear
5:10 PM 71.6 °F 32.0 °F 23% 30.04 in 10.0 mi East 4.6 mph - N/A   Clear
5:30 PM 69.8 °F 32.0 °F 25% 30.04 in 10.0 mi East 4.6 mph - N/A   Clear
5:50 PM 68.0 °F 30.2 °F 24% 30.04 in 10.0 mi Calm Calm - N/A   Clear
6:10 PM 66.2 °F 28.4 °F 24% 30.04 in 10.0 mi ENE 3.5 mph - N/A   Clear
6:30 PM 64.4 °F 30.2 °F 28% 30.04 in 10.0 mi NE 3.5 mph - N/A   Scattered Clouds
6:50 PM 62.6 °F 32.0 °F 32% 30.04 in 10.0 mi NE 3.5 mph - N/A   Clear
7:10 PM 60.8 °F 33.8 °F 36% 30.04 in 10.0 mi ENE 4.6 mph - N/A   Clear
7:30 PM 57.2 °F 35.6 °F 44% 30.04 in 10.0 mi ENE 5.8 mph - N/A   Scattered Clouds
7:50 PM 55.4 °F 35.6 °F 47% 30.04 in 10.0 mi NE 4.6 mph - N/A   Clear
8:10 PM 53.6 °F 35.6 °F 51% 30.05 in 10.0 mi NE 3.5 mph - N/A   Clear
8:30 PM 51.8 °F 35.6 °F 54% 30.05 in 10.0 mi Calm Calm - N/A   Clear
8:50 PM 51.8 °F 35.6 °F 54% 30.05 in 10.0 mi NE 3.5 mph - N/A   Clear
9:10 PM 50.0 °F 35.6 °F 58% 30.05 in 10.0 mi Calm Calm - N/A   Clear
9:30 PM 50.0 °F 35.6 °F 58% 30.06 in 10.0 mi Calm Calm - N/A   Clear
9:50 PM 48.2 °F 35.6 °F 62% 30.06 in 10.0 mi Calm Calm - N/A   Clear
10:10 PM 46.4 °F 37.4 °F 71% 30.06 in 10.0 mi Calm Calm - N/A   Clear
10:30 PM 46.4 °F 37.4 °F 71% 30.06 in 10.0 mi Calm Calm - N/A   Clear
10:50 PM 44.6 °F 37.4 °F 76% 30.06 in 10.0 mi Calm Calm - N/A   Clear
11:10 PM 44.6 °F 37.4 °F 76% 30.06 in 10.0 mi Calm Calm - N/A   Clear
11:30 PM 44.6 °F 39.2 °F 81% 30.06 in 10.0 mi Calm Calm - N/A   Clear
11:50 PM 44.6 °F 39.2 °F 81% 30.06 in 10.0 mi Calm Calm - N/A   Clear